Air Navigation Services of Czech Republic
Airport: LKTB Updated:  20.05.2022 20:30:31  UTC
 METAR LKTB 20.05. 20:30 ...
METAR LKTB 202030Z 16004KT CAVOK 22/14 Q1015 NOSIG=
 TAF LKTB 20.05. 17:00 ...
TAF LKTB 201700Z 2018/2200 18008KT CAVOK      TEMPO 2018/2107 5000 SHRA SCT055CB      PROB30 TEMPO 2018/2102 22018G34KT 3000 TSRA SCT045CB      BECMG 2102/2103 32012KT      TEMPO 2103/2119 34014G30KT=